NCAR-RAP Real-Time Weather Data

Output produced by METARs form (17 January 2018  22:29 UTC)
found at http://weather.rap.ucar.edu/surface/
 
Conditions at: KAPF observed 17 January 2018  21:53 UTC
Temperature: 18.3°C (65°F)
Dewpoint: 10.6°C (51°F) [RH = 61%]
Pressure (altimeter): 30.21 inches Hg (1023.1 mb)
[Sea-level pressure: 1022.7 mb]
Winds: from the NW (310 degrees) at 10 MPH (9 knots; 4.7 m/s)
Visibility: 10 or more miles (16+ km)
Ceiling: at least 12,000 feet AGL
Clouds: sky clear below 12,000 feet AGL
Present Weather: no significant weather observed at this time
KAPF 172153Z 31009KT 10SM CLR 18/11 A3021 RMK AO2 SLP227 T01830106

Conditions at: KAPF observed 17 January 2018  20:53 UTC
Temperature: 19.4°C (67°F)
Dewpoint: 10.0°C (50°F) [RH = 55%]
Pressure (altimeter): 30.19 inches Hg (1022.4 mb)
[Sea-level pressure: 1022.2 mb]
Winds: from the NW (310 degrees) at 12 MPH (10 knots; 5.2 m/s)
gusting to 20 MPH (17 knots; 8.8 m/s)
Visibility: 10 or more miles (16+ km)
Ceiling: at least 12,000 feet AGL
Clouds: sky clear below 12,000 feet AGL
Present Weather: no significant weather observed at this time
KAPF 172053Z 31010G17KT 10SM CLR 19/10 A3019 RMK AO2 SLP222 T01940100 55011

Conditions at: KAPF observed 17 January 2018  19:53 UTC
Temperature: 18.3°C (65°F)
Dewpoint: 12.8°C (55°F) [RH = 70%]
Pressure (altimeter): 30.19 inches Hg (1022.4 mb)
[Sea-level pressure: 1022.2 mb]
Winds: from the WNW (290 degrees) at 12 MPH (10 knots; 5.2 m/s)
Visibility: 10 or more miles (16+ km)
Ceiling: at least 12,000 feet AGL
Clouds: sky clear below 12,000 feet AGL
Present Weather: no significant weather observed at this time
KAPF 171953Z 29010KT 10SM CLR 18/13 A3019 RMK AO2 SLP222 T01830128

Conditions at: KAPF observed 17 January 2018  18:53 UTC
Temperature: 19.4°C (67°F)
Dewpoint: 11.1°C (52°F) [RH = 59%]
Pressure (altimeter): 30.20 inches Hg (1022.8 mb)
[Sea-level pressure: 1022.4 mb]
Winds: from the WNW (300 degrees) at 9 MPH (8 knots; 4.2 m/s)
Visibility: 10 or more miles (16+ km)
Ceiling: at least 12,000 feet AGL
Clouds: sky clear below 12,000 feet AGL
Present Weather: no significant weather observed at this time
KAPF 171853Z 30008KT 10SM CLR 19/11 A3020 RMK AO2 SLP224 T01940111

Conditions at: KAPF observed 17 January 2018  17:53 UTC
Temperature: 20.0°C (68°F)
Dewpoint: 10.6°C (51°F) [RH = 55%]
Pressure (altimeter): 30.22 inches Hg (1023.5 mb)
[Sea-level pressure: 1023.3 mb]
Winds: from the WNW (300 degrees) at 10 MPH (9 knots; 4.7 m/s)
Visibility: 10 or more miles (16+ km)
Ceiling: at least 12,000 feet AGL
Clouds: sky clear below 12,000 feet AGL
Present Weather: no significant weather observed at this time
KAPF 171753Z 30009KT 10SM CLR 20/11 A3022 RMK AO2 SLP233 T02000106 10211 20106 58016

Conditions at: KAPF observed 17 January 2018  16:53 UTC
Temperature: 21.1°C (70°F)
Dewpoint: 8.3°C (47°F) [RH = 44%]
Pressure (altimeter): 30.25 inches Hg (1024.5 mb)
[Sea-level pressure: 1024.2 mb]
Winds: from the N (360 degrees) at 6 MPH (5 knots; 2.6 m/s)
Visibility: 10 or more miles (16+ km)
Ceiling: at least 12,000 feet AGL
Clouds: sky clear below 12,000 feet AGL
Present Weather: no significant weather observed at this time
KAPF 171653Z 36005KT 10SM CLR 21/08 A3025 RMK AO2 SLP242 T02110083

Conditions at: KAPF observed 17 January 2018  15:53 UTC
Temperature: 18.9°C (66°F)
Dewpoint: 11.1°C (52°F) [RH = 61%]
Pressure (altimeter): 30.26 inches Hg (1024.8 mb)
[Sea-level pressure: 1024.6 mb]
Winds: calm
Visibility: 10 or more miles (16+ km)
Ceiling: at least 12,000 feet AGL
Clouds: sky clear below 12,000 feet AGL
Present Weather: no significant weather observed at this time
KAPF 171553Z 00000KT 10SM CLR 19/11 A3026 RMK AO2 SLP246 T01890111

Conditions at: KAPF observed 17 January 2018  14:53 UTC
Temperature: 16.7°C (62°F)
Dewpoint: 11.7°C (53°F) [RH = 72%]
Pressure (altimeter): 30.27 inches Hg (1025.1 mb)
[Sea-level pressure: 1024.9 mb]
Winds: variable direction winds at 6 MPH (5 knots; 2.6 m/s)
Visibility: 10 or more miles (16+ km)
Ceiling: at least 12,000 feet AGL
Clouds: sky clear below 12,000 feet AGL
Present Weather: no significant weather observed at this time
KAPF 171453Z VRB05KT 10SM CLR 17/12 A3027 RMK AO2 SLP249 T01670117 51017

Conditions at: KAPF observed 17 January 2018  13:53 UTC
Temperature: 13.9°C (57°F)
Dewpoint: 11.7°C (53°F) [RH = 87%]
Pressure (altimeter): 30.26 inches Hg (1024.8 mb)
[Sea-level pressure: 1024.5 mb]
Winds: from the NNE (30 degrees) at 8 MPH (7 knots; 3.6 m/s)
Visibility: 10 or more miles (16+ km)
Ceiling: at least 12,000 feet AGL
Clouds: sky clear below 12,000 feet AGL
Present Weather: no significant weather observed at this time
KAPF 171353Z 03007KT 10SM CLR 14/12 A3026 RMK AO2 SLP245 T01390117

Conditions at: KAPF observed 17 January 2018  12:53 UTC
Temperature: 11.7°C (53°F)
Dewpoint: 10.6°C (51°F) [RH = 93%]
Pressure (altimeter): 30.25 inches Hg (1024.5 mb)
[Sea-level pressure: 1024.0 mb]
Winds: from the NNE (30 degrees) at 5 MPH (4 knots; 2.1 m/s)
Visibility: 10 or more miles (16+ km)
Ceiling: at least 12,000 feet AGL
Clouds: sky clear below 12,000 feet AGL
Present Weather: no significant weather observed at this time
KAPF 171253Z 03004KT 10SM CLR 12/11 A3025 RMK AO2 SLP240 T01170106

Conditions at: KAPF observed 17 January 2018  11:53 UTC
Temperature: 10.6°C (51°F)
Dewpoint: 10.0°C (50°F) [RH = 96%]
Pressure (altimeter): 30.22 inches Hg (1023.5 mb)
[Sea-level pressure: 1023.1 mb]
Winds: from the NE (50 degrees) at 5 MPH (4 knots; 2.1 m/s)
Visibility: 10 or more miles (16+ km)
Ceiling: at least 12,000 feet AGL
Clouds: sky clear below 12,000 feet AGL
Present Weather: no significant weather observed at this time
KAPF 171153Z 05004KT 10SM CLR 11/10 A3022 RMK AO2 SLP231 T01060100 10144 20106 51008

Conditions at: KAPF observed 17 January 2018  10:53 UTC
Temperature: 11.1°C (52°F)
Dewpoint: 10.0°C (50°F) [RH = 93%]
Pressure (altimeter): 30.22 inches Hg (1023.5 mb)
[Sea-level pressure: 1023.1 mb]
Winds: from the NE (50 degrees) at 3 MPH (3 knots; 1.6 m/s)
Visibility: 10 or more miles (16+ km)
Ceiling: at least 12,000 feet AGL
Clouds: sky clear below 12,000 feet AGL
Present Weather: no significant weather observed at this time
KAPF 171053Z 05003KT 10SM CLR 11/10 A3022 RMK AO2 SLP231 T01110100

Conditions at: KAPF observed 17 January 2018  09:53 UTC
Temperature: 11.7°C (53°F)
Dewpoint: 10.0°C (50°F) [RH = 89%]
Pressure (altimeter): 30.21 inches Hg (1023.1 mb)
[Sea-level pressure: 1022.8 mb]
Winds: from the NE (50 degrees) at 5 MPH (4 knots; 2.1 m/s)
Visibility: 10 or more miles (16+ km)
Ceiling: at least 12,000 feet AGL
Clouds: sky clear below 12,000 feet AGL
Present Weather: automated observation with no human augmentation;
there may or may not be significant weather present at this time
KAPF 170953Z AUTO 05004KT 10SM CLR 12/10 A3021 RMK AO2 SLP228 T01170100

Conditions at: KAPF observed 17 January 2018  08:53 UTC
Temperature: 12.8°C (55°F)
Dewpoint: 10.6°C (51°F) [RH = 86%]
Pressure (altimeter): 30.20 inches Hg (1022.8 mb)
[Sea-level pressure: 1022.3 mb]
Winds: from the NNE (30 degrees) at 6 MPH (5 knots; 2.6 m/s)
Visibility: 10 or more miles (16+ km)
Ceiling: at least 12,000 feet AGL
Clouds: sky clear below 12,000 feet AGL
Present Weather: automated observation with no human augmentation;
there may or may not be significant weather present at this time
KAPF 170853Z AUTO 03005KT 10SM CLR 13/11 A3020 RMK AO2 SLP223 T01280106 56013

Conditions at: KAPF observed 17 January 2018  07:53 UTC
Temperature: 13.3°C (56°F)
Dewpoint: 10.6°C (51°F) [RH = 84%]
Pressure (altimeter): 30.20 inches Hg (1022.8 mb)
[Sea-level pressure: 1022.6 mb]
Winds: from the NNE (30 degrees) at 6 MPH (5 knots; 2.6 m/s)
Visibility: 10 or more miles (16+ km)
Ceiling: at least 12,000 feet AGL
Clouds: sky clear below 12,000 feet AGL
Present Weather: automated observation with no human augmentation;
there may or may not be significant weather present at this time
KAPF 170753Z AUTO 03005KT 10SM CLR 13/11 A3020 RMK AO2 SLP226 T01330106

Conditions at: KAPF observed 17 January 2018  06:53 UTC
Temperature: 13.3°C (56°F)
Dewpoint: 10.6°C (51°F) [RH = 84%]
Pressure (altimeter): 30.21 inches Hg (1023.1 mb)
[Sea-level pressure: 1022.9 mb]
Winds: from the NE (40 degrees) at 6 MPH (5 knots; 2.6 m/s)
Visibility: 10 or more miles (16+ km)
Ceiling: at least 12,000 feet AGL
Clouds: sky clear below 12,000 feet AGL
Present Weather: automated observation with no human augmentation;
there may or may not be significant weather present at this time
KAPF 170653Z AUTO 04005KT 10SM CLR 13/11 A3021 RMK AO2 SLP229 T01330106

Conditions at: KAPF observed 17 January 2018  05:53 UTC
Temperature: 14.4°C (58°F)
Dewpoint: 11.1°C (52°F) [RH = 81%]
Pressure (altimeter): 30.23 inches Hg (1023.8 mb)
[Sea-level pressure: 1023.6 mb]
Winds: from the NNE (20 degrees) at 6 MPH (5 knots; 2.6 m/s)
Visibility: 10 or more miles (16+ km)
Ceiling: at least 12,000 feet AGL
Clouds: sky clear below 12,000 feet AGL
Present Weather: automated observation with no human augmentation;
there may or may not be significant weather present at this time
KAPF 170553Z AUTO 02005KT 10SM CLR 14/11 A3023 RMK AO2 SLP236 T01440111 10189 20139 58011

Conditions at: KAPF observed 17 January 2018  04:53 UTC
Temperature: 15.0°C (59°F)
Dewpoint: 10.6°C (51°F) [RH = 75%]
Pressure (altimeter): 30.25 inches Hg (1024.5 mb)
[Sea-level pressure: 1024.3 mb]
Winds: from the NE (40 degrees) at 5 MPH (4 knots; 2.1 m/s)
Visibility: 10 or more miles (16+ km)
Ceiling: at least 12,000 feet AGL
Clouds: sky clear below 12,000 feet AGL
Present Weather: automated observation with no human augmentation;
there may or may not be significant weather present at this time
KAPF 170453Z AUTO 04004KT 10SM CLR 15/11 A3025 RMK AO2 SLP243 T01500106 402440111

Conditions at: KAPF observed 17 January 2018  03:53 UTC
Temperature: 15.0°C (59°F)
Dewpoint: 10.6°C (51°F) [RH = 75%]
Pressure (altimeter): 30.26 inches Hg (1024.8 mb)
[Sea-level pressure: 1024.6 mb]
Winds: from the NE (50 degrees) at 6 MPH (5 knots; 2.6 m/s)
Visibility: 10 or more miles (16+ km)
Ceiling: at least 12,000 feet AGL
Clouds: sky clear below 12,000 feet AGL
Present Weather: automated observation with no human augmentation;
there may or may not be significant weather present at this time
KAPF 170353Z AUTO 05005KT 10SM CLR 15/11 A3026 RMK AO2 SLP246 T01500106

Conditions at: KAPF observed 17 January 2018  02:53 UTC
Temperature: 16.7°C (62°F)
Dewpoint: 10.0°C (50°F) [RH = 65%]
Pressure (altimeter): 30.27 inches Hg (1025.1 mb)
[Sea-level pressure: 1024.7 mb]
Winds: from the NE (50 degrees) at 7 MPH (6 knots; 3.1 m/s)
Visibility: 10 or more miles (16+ km)
Ceiling: at least 12,000 feet AGL
Clouds: sky clear below 12,000 feet AGL
Present Weather: automated observation with no human augmentation;
there may or may not be significant weather present at this time
KAPF 170253Z AUTO 05006KT 10SM CLR 17/10 A3027 RMK AO2 SLP247 T01670100 53014

Conditions at: KAPF observed 17 January 2018  01:53 UTC
Temperature: 17.2°C (63°F)
Dewpoint: 9.4°C (49°F) [RH = 60%]
Pressure (altimeter): 30.25 inches Hg (1024.5 mb)
[Sea-level pressure: 1024.1 mb]
Winds: from the ENE (70 degrees) at 9 MPH (8 knots; 4.2 m/s)
Visibility: 10 or more miles (16+ km)
Ceiling: at least 12,000 feet AGL
Clouds: sky clear below 12,000 feet AGL
Present Weather: no significant weather observed at this time
KAPF 170153Z 07008KT 10SM CLR 17/09 A3025 RMK AO2 SLP241 T01720094

Conditions at: KAPF observed 17 January 2018  00:53 UTC
Temperature: 17.8°C (64°F)
Dewpoint: 9.4°C (49°F) [RH = 58%]
Pressure (altimeter): 30.24 inches Hg (1024.1 mb)
[Sea-level pressure: 1023.8 mb]
Winds: from the NE (40 degrees) at 7 MPH (6 knots; 3.1 m/s)
Visibility: 10 or more miles (16+ km)
Ceiling: at least 12,000 feet AGL
Clouds: sky clear below 12,000 feet AGL
Present Weather: no significant weather observed at this time
KAPF 170053Z 04006KT 10SM CLR 18/09 A3024 RMK AO2 SLP238 T01780094

Conditions at: KAPF observed 16 January 2018  23:53 UTC
Temperature: 18.3°C (65°F)
Dewpoint: 9.4°C (49°F) [RH = 56%]
Pressure (altimeter): 30.23 inches Hg (1023.8 mb)
[Sea-level pressure: 1023.4 mb]
Winds: from the NE (40 degrees) at 6 MPH (5 knots; 2.6 m/s)
Visibility: 10 or more miles (16+ km)
Ceiling: at least 12,000 feet AGL
Clouds: sky clear below 12,000 feet AGL
Present Weather: no significant weather observed at this time
KAPF 162353Z 04005KT 10SM CLR 18/09 A3023 RMK AO2 SLP234 T01830094 10244 20183 53002

Conditions at: KAPF observed 16 January 2018  22:53 UTC
Temperature: 20.6°C (69°F)
Dewpoint: 8.9°C (48°F) [RH = 47%]
Pressure (altimeter): 30.22 inches Hg (1023.5 mb)
[Sea-level pressure: 1023.1 mb]
Winds: from the NE (40 degrees) at 8 MPH (7 knots; 3.6 m/s)
Visibility: 10 or more miles (16+ km)
Ceiling: at least 12,000 feet AGL
Clouds: sky clear below 12,000 feet AGL
Present Weather: no significant weather observed at this time
KAPF 162253Z 04007KT 10SM CLR 21/09 A3022 RMK AO2 SLP231 T02060089

Conditions at: KAPF observed 16 January 2018  21:53 UTC
Temperature: 22.2°C (72°F)
Dewpoint: 8.3°C (47°F) [RH = 41%]
Pressure (altimeter): 30.21 inches Hg (1023.1 mb)
[Sea-level pressure: 1022.9 mb]
Winds: from the NE (50 degrees) at 10 MPH (9 knots; 4.7 m/s)
Visibility: 10 or more miles (16+ km)
Ceiling: at least 12,000 feet AGL
Clouds: sky clear below 12,000 feet AGL
Present Weather: no significant weather observed at this time
KAPF 162153Z 05009KT 10SM CLR 22/08 A3021 RMK AO2 SLP229 T02220083

Conditions at: KAPF observed 16 January 2018  20:53 UTC
Temperature: 23.3°C (74°F)
Dewpoint: 7.8°C (46°F) [RH = 37%]
Pressure (altimeter): 30.22 inches Hg (1023.5 mb)
[Sea-level pressure: 1023.1 mb]
Winds: from the NNE (30 degrees) at 10 MPH (9 knots; 4.7 m/s)
Visibility: 10 or more miles (16+ km)
Ceiling: at least 12,000 feet AGL
Clouds: sky clear below 12,000 feet AGL
Present Weather: no significant weather observed at this time
KAPF 162053Z 03009KT 10SM CLR 23/08 A3022 RMK AO2 SLP231 T02330078 56016

Conditions at: KAPF observed 16 January 2018  19:53 UTC
Temperature: 23.9°C (75°F)
Dewpoint: 8.9°C (48°F) [RH = 38%]
Pressure (altimeter): 30.23 inches Hg (1023.8 mb)
[Sea-level pressure: 1023.4 mb]
Winds: from the NNE (20 degrees) at 12 MPH (10 knots; 5.2 m/s)
Visibility: 10 or more miles (16+ km)
Ceiling: at least 12,000 feet AGL
Clouds: few clouds at 6000 feet AGL
Present Weather: no significant weather observed at this time
KAPF 161953Z 02010KT 360V060 10SM FEW060 24/09 A3023 RMK AO2 SLP234 T02390089

Conditions at: KAPF observed 16 January 2018  18:53 UTC
Temperature: 23.9°C (75°F)
Dewpoint: 8.3°C (47°F) [RH = 37%]
Pressure (altimeter): 30.24 inches Hg (1024.1 mb)
[Sea-level pressure: 1023.7 mb]
Winds: from the ENE (60 degrees) at 14 MPH (12 knots; 6.2 m/s)
Visibility: 10 or more miles (16+ km)
Ceiling: at least 12,000 feet AGL
Clouds: sky clear below 12,000 feet AGL
Present Weather: no significant weather observed at this time
KAPF 161853Z 06012KT 10SM CLR 24/08 A3024 RMK AO2 SLP237 T02390083

Conditions at: KAPF observed 16 January 2018  17:53 UTC
Temperature: 23.9°C (75°F)
Dewpoint: 8.9°C (48°F) [RH = 38%]
Pressure (altimeter): 30.26 inches Hg (1024.8 mb)
[Sea-level pressure: 1024.7 mb]
Winds: from the NE (50 degrees) at 16 MPH (14 knots; 7.3 m/s)
gusting to 24 MPH (21 knots; 10.9 m/s)
Visibility: 10 or more miles (16+ km)
Ceiling: at least 12,000 feet AGL
Clouds: sky clear below 12,000 feet AGL
Present Weather: no significant weather observed at this time
KAPF 161753Z 05014G21KT 10SM CLR 24/09 A3026 RMK AO2 SLP247 T02390089 10239 20111 58022

Conditions at: KAPF observed 16 January 2018  16:53 UTC
Temperature: 22.8°C (73°F)
Dewpoint: 10.6°C (51°F) [RH = 46%]
Pressure (altimeter): 30.30 inches Hg (1026.2 mb)
[Sea-level pressure: 1025.8 mb]
Winds: from the NE (50 degrees) at 16 MPH (14 knots; 7.3 m/s)
gusting to 21 MPH (18 knots; 9.4 m/s)
Visibility: 10 or more miles (16+ km)
Ceiling: at least 12,000 feet AGL
Clouds: sky clear below 12,000 feet AGL
Present Weather: no significant weather observed at this time
KAPF 161653Z 05014G18KT 10SM CLR 23/11 A3030 RMK AO2 SLP258 T02280106

Conditions at: KAPF observed 16 January 2018  15:53 UTC
Temperature: 21.7°C (71°F)
Dewpoint: 11.7°C (53°F) [RH = 53%]
Pressure (altimeter): 30.32 inches Hg (1026.8 mb)
[Sea-level pressure: 1026.6 mb]
Winds: from the NE (50 degrees) at 15 MPH (13 knots; 6.8 m/s)
Visibility: 10 or more miles (16+ km)
Ceiling: at least 12,000 feet AGL
Clouds: sky clear below 12,000 feet AGL
Present Weather: no significant weather observed at this time
KAPF 161553Z 05013KT 10SM CLR 22/12 A3032 RMK AO2 SLP266 T02170117

Conditions at: KAPF observed 16 January 2018  14:53 UTC
Temperature: 18.9°C (66°F)
Dewpoint: 11.1°C (52°F) [RH = 61%]
Pressure (altimeter): 30.33 inches Hg (1027.2 mb)
[Sea-level pressure: 1026.9 mb]
Winds: from the NE (50 degrees) at 10 MPH (9 knots; 4.7 m/s)
Visibility: 10 or more miles (16+ km)
Ceiling: at least 12,000 feet AGL
Clouds: sky clear below 12,000 feet AGL
Present Weather: no significant weather observed at this time
KAPF 161453Z 05009KT 10SM CLR 19/11 A3033 RMK AO2 SLP269 T01890111 51013

Conditions at: KAPF observed 16 January 2018  13:53 UTC
Temperature: 14.4°C (58°F)
Dewpoint: 10.6°C (51°F) [RH = 78%]
Pressure (altimeter): 30.33 inches Hg (1027.2 mb)
[Sea-level pressure: 1026.8 mb]
Winds: from the NE (40 degrees) at 9 MPH (8 knots; 4.2 m/s)
Visibility: 10 or more miles (16+ km)
Ceiling: at least 12,000 feet AGL
Clouds: sky clear below 12,000 feet AGL
Present Weather: no significant weather observed at this time
KAPF 161353Z 04008KT 10SM CLR 14/11 A3033 RMK AO2 SLP268 T01440106

Conditions at: KAPF observed 16 January 2018  12:53 UTC
Temperature: 11.7°C (53°F)
Dewpoint: 10.0°C (50°F) [RH = 89%]
Pressure (altimeter): 30.30 inches Hg (1026.2 mb)
[Sea-level pressure: 1026.0 mb]
Winds: from the NNE (20 degrees) at 9 MPH (8 knots; 4.2 m/s)
Visibility: 10 or more miles (16+ km)
Ceiling: at least 12,000 feet AGL
Clouds: sky clear below 12,000 feet AGL
Present Weather:
SOME DATA ABOVE MAY BE INACCURATE!!!
"$" is an indication the sensor requires maintenance
KAPF 161253Z 02008KT 10SM CLR 12/10 A3030 RMK AO2 SLP260 T01170100 $

Conditions at: KAPF observed 16 January 2018  11:53 UTC
Temperature: 11.1°C (52°F)
Dewpoint: 9.4°C (49°F) [RH = 89%]
Pressure (altimeter): 30.29 inches Hg (1025.8 mb)
[Sea-level pressure: 1025.6 mb]
Winds: from the NNE (30 degrees) at 7 MPH (6 knots; 3.1 m/s)
Visibility: 10 or more miles (16+ km)
Ceiling: at least 12,000 feet AGL
Clouds: sky clear below 12,000 feet AGL
Present Weather:
SOME DATA ABOVE MAY BE INACCURATE!!!
"$" is an indication the sensor requires maintenance
KAPF 161153Z 03006KT 10SM CLR 11/09 A3029 RMK AO2 SLP256 T01110094 10133 20111 53011 $

Conditions at: KAPF observed 16 January 2018  10:53 UTC
Temperature: 11.1°C (52°F)
Dewpoint: 10.0°C (50°F) [RH = 93%]
Pressure (altimeter): 30.27 inches Hg (1025.1 mb)
[Sea-level pressure: 1025.0 mb]
Winds: from the NNE (30 degrees) at 8 MPH (7 knots; 3.6 m/s)
Visibility: 10 or more miles (16+ km)
Ceiling: at least 12,000 feet AGL
Clouds: sky clear below 12,000 feet AGL
Present Weather:
SOME DATA ABOVE MAY BE INACCURATE!!!
"$" is an indication the sensor requires maintenance
KAPF 161053Z 03007KT 10SM CLR 11/10 A3027 RMK AO2 SLP250 T01110100 $

Conditions at: KAPF observed 16 January 2018  09:53 UTC
Temperature: 11.7°C (53°F)
Dewpoint: 10.0°C (50°F) [RH = 89%]
Pressure (altimeter): 30.26 inches Hg (1024.8 mb)
[Sea-level pressure: 1024.7 mb]
Winds: from the NE (40 degrees) at 8 MPH (7 knots; 3.6 m/s)
Visibility: 10 or more miles (16+ km)
Ceiling: at least 12,000 feet AGL
Clouds: sky clear below 12,000 feet AGL
Present Weather:
SOME DATA ABOVE MAY BE INACCURATE!!!
"$" is an indication the sensor requires maintenance
KAPF 160953Z AUTO 04007KT 10SM CLR 12/10 A3026 RMK AO2 SLP247 T01170100 $

Conditions at: KAPF observed 16 January 2018  08:53 UTC
Temperature: 12.2°C (54°F)
Dewpoint: 10.0°C (50°F) [RH = 86%]
Pressure (altimeter): 30.26 inches Hg (1024.8 mb)
[Sea-level pressure: 1024.5 mb]
Winds: from the NE (40 degrees) at 7 MPH (6 knots; 3.1 m/s)
Visibility: 10 or more miles (16+ km)
Ceiling: at least 12,000 feet AGL
Clouds: sky clear below 12,000 feet AGL
Present Weather:
SOME DATA ABOVE MAY BE INACCURATE!!!
"$" is an indication the sensor requires maintenance
KAPF 160853Z AUTO 04006KT 10SM CLR 12/10 A3026 RMK AO2 SLP245 T01220100 55003 $

Conditions at: KAPF observed 16 January 2018  07:53 UTC
Temperature: 12.2°C (54°F)
Dewpoint: 10.0°C (50°F) [RH = 86%]
Pressure (altimeter): 30.25 inches Hg (1024.5 mb)
[Sea-level pressure: 1024.3 mb]
Winds: from the NE (50 degrees) at 7 MPH (6 knots; 3.1 m/s)
Visibility: 10 or more miles (16+ km)
Ceiling: at least 12,000 feet AGL
Clouds: few clouds at 4500 feet AGL
Present Weather:
SOME DATA ABOVE MAY BE INACCURATE!!!
"$" is an indication the sensor requires maintenance
KAPF 160753Z AUTO 05006KT 10SM FEW045 12/10 A3025 RMK AO2 SLP243 T01220100 $

Conditions at: KAPF observed 16 January 2018  06:53 UTC
Temperature: 12.8°C (55°F)
Dewpoint: 9.4°C (49°F) [RH = 80%]
Pressure (altimeter): 30.27 inches Hg (1025.1 mb)
[Sea-level pressure: 1024.9 mb]
Winds: from the NE (40 degrees) at 6 MPH (5 knots; 2.6 m/s)
Visibility: 10 or more miles (16+ km)
Ceiling: at least 12,000 feet AGL
Clouds: sky clear below 12,000 feet AGL
Present Weather:
SOME DATA ABOVE MAY BE INACCURATE!!!
"$" is an indication the sensor requires maintenance
KAPF 160653Z AUTO 04005KT 10SM CLR 13/09 A3027 RMK AO2 SLP249 T01280094 $

Conditions at: KAPF observed 16 January 2018  05:53 UTC
Temperature: 13.3°C (56°F)
Dewpoint: 9.4°C (49°F) [RH = 77%]
Pressure (altimeter): 30.27 inches Hg (1025.1 mb)
[Sea-level pressure: 1024.8 mb]
Winds: from the NNE (30 degrees) at 10 MPH (9 knots; 4.7 m/s)
Visibility: 10 or more miles (16+ km)
Ceiling: at least 12,000 feet AGL
Clouds: sky clear below 12,000 feet AGL
Present Weather:
SOME DATA ABOVE MAY BE INACCURATE!!!
"$" is an indication the sensor requires maintenance
KAPF 160553Z AUTO 03009KT 10SM CLR 13/09 A3027 RMK AO2 SLP248 T01330094 10183 20133 58004 $

Conditions at: KAPF observed 16 January 2018  04:53 UTC
Temperature: 13.9°C (57°F)
Dewpoint: 9.4°C (49°F) [RH = 74%]
Pressure (altimeter): 30.27 inches Hg (1025.1 mb)
[Sea-level pressure: 1025.0 mb]
Winds: from the NNE (30 degrees) at 12 MPH (10 knots; 5.2 m/s)
Visibility: 10 or more miles (16+ km)
Ceiling: at least 12,000 feet AGL
Clouds: sky clear below 12,000 feet AGL
Present Weather:
SOME DATA ABOVE MAY BE INACCURATE!!!
"$" is an indication the sensor requires maintenance
KAPF 160453Z AUTO 03010KT 10SM CLR 14/09 A3027 RMK AO2 SLP250 T01390094 402330089 $

Conditions at: KAPF observed 16 January 2018  03:53 UTC
Temperature: 15.0°C (59°F)
Dewpoint: 10.0°C (50°F) [RH = 72%]
Pressure (altimeter): 30.28 inches Hg (1025.5 mb)
[Sea-level pressure: 1025.3 mb]
Winds: from the NE (40 degrees) at 12 MPH (10 knots; 5.2 m/s)
Visibility: 10 or more miles (16+ km)
Ceiling: 6500 feet AGL
Clouds: few clouds at 4100 feet AGL
broken clouds at 6500 feet AGL
Present Weather:
SOME DATA ABOVE MAY BE INACCURATE!!!
"$" is an indication the sensor requires maintenance
KAPF 160353Z AUTO 04010KT 10SM FEW041 BKN065 15/10 A3028 RMK AO2 SLP253 T01500100 $

Conditions at: KAPF observed 16 January 2018  02:53 UTC
Temperature: 15.6°C (60°F)
Dewpoint: 8.9°C (48°F) [RH = 64%]
Pressure (altimeter): 30.28 inches Hg (1025.5 mb)
[Sea-level pressure: 1025.2 mb]
Winds: from the NE (40 degrees) at 13 MPH (11 knots; 5.7 m/s)
Visibility: 10 or more miles (16+ km)
Ceiling: at least 12,000 feet AGL
Clouds: few clouds at 4300 feet AGL
Present Weather:
SOME DATA ABOVE MAY BE INACCURATE!!!
"$" is an indication the sensor requires maintenance
KAPF 160253Z AUTO 04011KT 10SM FEW043 16/09 A3028 RMK AO2 SLP252 T01560089 51011 $

Conditions at: KAPF observed 16 January 2018  01:53 UTC
Temperature: 17.2°C (63°F)
Dewpoint: 8.9°C (48°F) [RH = 58%]
Pressure (altimeter): 30.27 inches Hg (1025.1 mb)
[Sea-level pressure: 1025.0 mb]
Winds: from the NE (40 degrees) at 16 MPH (14 knots; 7.3 m/s)
gusting to 26 MPH (23 knots; 12.0 m/s)
Visibility: 10 or more miles (16+ km)
Ceiling: at least 12,000 feet AGL
Clouds: few clouds at 5000 feet AGL
Present Weather:
SOME DATA ABOVE MAY BE INACCURATE!!!
"$" is an indication the sensor requires maintenance
KAPF 160153Z 04014G23KT 10SM FEW050 17/09 A3027 RMK AO2 SLP250 T01720089 $

Conditions at: KAPF observed 16 January 2018  00:53 UTC
Temperature: 17.2°C (63°F)
Dewpoint: 11.7°C (53°F) [RH = 70%]
Pressure (altimeter): 30.26 inches Hg (1024.8 mb)
[Sea-level pressure: 1024.4 mb]
Winds: from the NE (50 degrees) at 15 MPH (13 knots; 6.8 m/s)
Visibility: 10 or more miles (16+ km)
Ceiling: 3800 feet AGL
Clouds: broken clouds at 3800 feet AGL
Present Weather:
SOME DATA ABOVE MAY BE INACCURATE!!!
"$" is an indication the sensor requires maintenance
KAPF 160053Z 05013KT 10SM BKN038 17/12 A3026 RMK AO2 SLP244 T01720117 $

Conditions at: KAPF observed 15 January 2018  23:53 UTC
Temperature: 18.3°C (65°F)
Dewpoint: 12.8°C (55°F) [RH = 70%]
Pressure (altimeter): 30.25 inches Hg (1024.5 mb)
[Sea-level pressure: 1024.1 mb]
Winds: from the NE (50 degrees) at 14 MPH (12 knots; 6.2 m/s)
Visibility: 10 or more miles (16+ km)
Ceiling: 3900 feet AGL
Clouds: broken clouds at 3900 feet AGL
Present Weather:
SOME DATA ABOVE MAY BE INACCURATE!!!
"$" is an indication the sensor requires maintenance
KAPF 152353Z 05012KT 10SM BKN039 18/13 A3025 RMK AO2 SLP241 T01830128 10233 20183 53014 $

Conditions at: KAPF observed 15 January 2018  22:53 UTC
Temperature: 20.0°C (68°F)
Dewpoint: 13.3°C (56°F) [RH = 65%]
Pressure (altimeter): 30.23 inches Hg (1023.8 mb)
[Sea-level pressure: 1023.5 mb]
Winds: from the ENE (60 degrees) at 12 MPH (10 knots; 5.2 m/s)
Visibility: 10 or more miles (16+ km)
Ceiling: at least 12,000 feet AGL
Clouds: scattered clouds at 4400 feet AGL
Present Weather:
SOME DATA ABOVE MAY BE INACCURATE!!!
"$" is an indication the sensor requires maintenance
KAPF 152253Z 06010KT 10SM SCT044 20/13 A3023 RMK AO2 SLP235 T02000133 $